Time;durP1;ratioP1;P1;durP2;ratioP2;P2;SDS_P1;SDS_P2;PMS_P1;PMS_P2;Temp;Humidity;BMP_temperature;BMP_pressure;BME280_temperature;BME280_humidity;BME280_pressure;Samples;Min_cycle;Max_cycle;Signal;HPM_P1;HPM_P2
2022/02/04 00:20:28;;;;;;;17.45;9.10;;;;;;;7.26;100.00;101131.63;5032695;28;20094;-74
2022/02/04 00:25:37;;;;;;;13.57;7.95;;;;;;;7.23;100.00;101123.81;5041549;28;20048;-69
2022/02/04 00:28:09;;;;;;;15.45;7.85;;;;;;;7.22;100.00;101116.81;5031405;28;20037;-72
2022/02/04 00:30:40;;;;;;;15.82;8.55;;;;;;;7.22;100.00;101108.91;5031909;28;20032;-71
2022/02/04 00:33:08;;;;;;;12.07;7.70;;;;;;;7.27;100.00;101124.59;5011430;28;20053;-73
2022/02/04 00:38:27;;;;;;;15.88;8.00;;;;;;;7.29;100.00;101109.59;5030955;28;20061;-72
2022/02/04 00:40:48;;;;;;;18.35;7.60;;;;;;;7.26;100.00;101114.97;5031802;28;20037;-74
2022/02/04 00:43:15;;;;;;;15.35;7.63;;;;;;;7.26;100.00;101107.91;5034364;28;20040;-68
2022/02/04 00:45:51;;;;;;;12.85;7.30;;;;;;;7.26;100.00;101107.91;5032725;28;20036;-72
2022/02/04 00:53:48;;;;;;;15.02;6.82;;;;;;;7.24;100.00;101111.50;5010491;28;20088;-68
2022/02/04 00:56:45;;;;;;;16.63;7.10;;;;;;;7.26;100.00;101102.63;5010871;28;20037;-68
2022/02/04 01:13:27;;;;;;;12.13;5.68;;;;;;;7.25;100.00;101093.03;4952590;28;20049;-70
2022/02/04 01:26:50;;;;;;;10.55;4.95;;;;;;;7.33;100.00;101080.50;4952500;29;20047;-69
2022/02/04 01:29:15;;;;;;;14.38;5.07;;;;;;;7.34;100.00;101078.72;4953637;28;20027;-74
2022/02/04 01:31:41;;;;;;;10.70;4.93;;;;;;;7.32;100.00;101081.41;4990952;28;20042;-69
2022/02/04 01:34:07;;;;;;;10.50;5.50;;;;;;;7.32;100.00;101080.56;4991137;28;20034;-72
2022/02/04 01:36:32;;;;;;;12.85;4.85;;;;;;;7.30;100.00;101070.06;4991942;28;20057;-70
2022/02/04 01:38:57;;;;;;;13.93;4.82;;;;;;;7.29;100.00;101078.88;4990777;28;20042;-72
2022/02/04 01:41:23;;;;;;;9.80;4.93;;;;;;;7.33;100.00;101064.69;4990650;28;20419;-70
2022/02/04 01:43:50;;;;;;;13.20;4.75;;;;;;;7.34;100.00;101071.69;4991076;28;20041;-73
2022/02/04 01:46:16;;;;;;;8.70;4.57;;;;;;;7.31;100.00;101070.91;4999320;28;20034;-67
2022/02/04 01:48:42;;;;;;;11.98;4.97;;;;;;;7.33;100.00;101071.75;5034096;28;20042;-69
2022/02/04 01:51:10;;;;;;;11.13;4.50;;;;;;;7.32;100.00;101062.13;5032323;28;20032;-68
2022/02/04 01:53:36;;;;;;;11.55;4.57;;;;;;;7.35;100.00;101056.75;5032296;28;20032;-71
2022/02/04 01:56:08;;;;;;;12.07;5.40;;;;;;;7.33;100.00;101059.44;5033124;28;20033;-74
2022/02/04 01:58:34;;;;;;;11.23;4.78;;;;;;;7.32;100.00;101060.34;5032042;28;20038;-75
2022/02/04 02:00:59;;;;;;;10.45;4.72;;;;;;;7.32;100.00;101054.22;5032258;28;20481;-68
2022/02/04 02:03:26;;;;;;;12.95;5.00;;;;;;;7.31;100.00;101058.59;5031993;28;20048;-73
2022/02/04 02:05:53;;;;;;;15.85;5.05;;;;;;;7.32;100.00;101056.84;5032266;28;20025;-66
2022/02/04 02:08:19;;;;;;;11.30;4.32;;;;;;;7.33;100.00;101043.63;5033374;28;20057;-68
2022/02/04 02:10:46;;;;;;;12.73;4.78;;;;;;;7.30;100.00;101050.75;5031146;28;20068;-72
2022/02/04 02:13:28;;;;;;;13.95;4.60;;;;;;;7.31;100.00;101039.31;5027807;28;20022;-71
2022/02/04 02:16:07;;;;;;;12.25;5.03;;;;;;;7.32;100.00;101038.41;5012149;28;20109;-68
2022/02/04 02:43:19;;;;;;;10.63;3.78;;;;;;;7.44;100.00;101018.75;5035522;28;20044;-70
2022/02/04 02:58:55;;;;;;;11.38;4.10;;;;;;;7.41;100.00;101005.66;5035280;28;20035;-70
2022/02/04 03:01:21;;;;;;;9.07;3.78;;;;;;;7.43;99.83;101002.09;5036361;28;20045;-72
2022/02/04 03:03:52;;;;;;;6.82;3.50;;;;;;;7.41;99.50;100995.97;5035274;28;20065;-67
2022/02/04 03:06:17;;;;;;;7.10;3.38;;;;;;;7.44;100.00;100995.03;5034868;28;20022;-70
2022/02/04 03:08:43;;;;;;;9.90;3.58;;;;;;;7.46;99.58;100994.06;5033603;28;20036;-69
2022/02/04 03:11:08;;;;;;;8.23;3.30;;;;;;;7.46;99.71;100982.69;5034966;28;20454;-71
2022/02/04 03:13:34;;;;;;;8.18;3.40;;;;;;;7.45;99.37;100981.81;5034699;28;20028;-68
2022/02/04 03:16:03;;;;;;;8.77;3.25;;;;;;;7.47;99.23;100982.63;5034876;28;20028;-67
2022/02/04 03:18:32;;;;;;;11.25;3.25;;;;;;;7.46;99.27;100983.53;5034085;28;20033;-67
2022/02/04 03:21:05;;;;;;;9.02;2.90;;;;;;;7.48;99.25;100978.22;5035231;28;20389;-69
2022/02/04 03:23:34;;;;;;;9.23;3.00;;;;;;;7.48;99.37;100978.22;5049987;28;20028;-68
2022/02/04 03:26:07;;;;;;;9.18;2.85;;;;;;;7.48;99.18;100971.19;5054649;28;20098;-67
2022/02/04 03:28:33;;;;;;;6.63;2.30;;;;;;;7.49;99.35;100966.78;5036110;28;20155;-70
2022/02/04 03:30:59;;;;;;;7.32;2.58;;;;;;;7.50;99.14;100969.34;5034679;28;20492;-69
2022/02/04 03:33:28;;;;;;;7.55;2.42;;;;;;;7.48;99.45;100978.22;5035652;28;20094;-68
2022/02/04 03:35:54;;;;;;;7.57;2.20;;;;;;;7.52;99.44;100983.34;5034351;28;20490;-67
2022/02/04 03:38:19;;;;;;;8.23;2.20;;;;;;;7.52;99.56;100975.44;5033915;28;20100;-67
2022/02/04 03:40:45;;;;;;;12.43;2.60;;;;;;;7.52;99.28;100970.19;5034802;28;20031;-67
2022/02/04 03:43:10;;;;;;;12.90;2.20;;;;;;;7.55;99.39;100972.72;5036533;28;20027;-67
2022/02/04 03:45:35;;;;;;;9.95;2.53;;;;;;;7.54;99.64;100972.75;5034236;28;20055;-67
2022/02/04 03:48:01;;;;;;;6.78;2.50;;;;;;;7.52;99.55;100966.69;5033982;28;20025;-69
2022/02/04 03:50:27;;;;;;;6.68;2.42;;;;;;;7.55;99.66;100972.72;5034221;28;20021;-67
2022/02/04 03:52:52;;;;;;;11.18;2.58;;;;;;;7.55;99.93;100958.69;5034387;28;20101;-68
2022/02/04 03:55:17;;;;;;;11.15;2.70;;;;;;;7.58;99.78;100949.81;5035132;28;20541;-70
2022/02/04 03:57:43;;;;;;;11.40;2.45;;;;;;;7.58;99.76;100949.81;5034268;28;20029;-69
2022/02/04 04:00:12;;;;;;;9.88;2.53;;;;;;;7.59;100.00;100941.88;5033483;28;20477;-68
2022/02/04 04:02:37;;;;;;;10.07;2.38;;;;;;;7.58;100.00;100947.19;5034156;28;20083;-71
2022/02/04 04:05:03;;;;;;;8.60;2.20;;;;;;;7.59;100.00;100933.09;5034949;28;20029;-70
2022/02/04 04:07:29;;;;;;;9.65;2.30;;;;;;;7.58;100.00;100939.28;5033901;28;20025;-68
2022/02/04 04:10:02;;;;;;;12.10;2.92;;;;;;;7.56;100.00;100936.69;5033585;28;20536;-73
2022/02/04 04:12:28;;;;;;;8.70;3.25;;;;;;;7.57;100.00;100940.19;5033938;28;20108;-68
2022/02/04 04:14:55;;;;;;;11.63;2.63;;;;;;;7.52;100.00;100938.56;5033008;28;20156;-71
2022/02/04 04:17:21;;;;;;;8.27;2.50;;;;;;;7.55;100.00;100938.44;5033899;28;20025;-72
2022/02/04 04:19:46;;;;;;;9.10;2.35;;;;;;;7.57;100.00;100941.06;5033318;28;20362;-66
2022/02/04 04:22:12;;;;;;;9.63;2.38;;;;;;;7.57;100.00;100943.69;5033667;28;20033;-70
2022/02/04 04:24:37;;;;;;;7.88;2.33;;;;;;;7.55;100.00;100949.00;5033624;28;20030;-72
2022/02/04 04:27:03;;;;;;;6.20;2.30;;;;;;;7.59;100.00;100947.13;5048813;28;20116;-68
2022/02/04 04:29:28;;;;;;;11.52;2.40;;;;;;;7.58;100.00;100936.66;5050634;28;20108;-71
2022/02/04 04:31:54;;;;;;;9.48;2.17;;;;;;;7.56;100.00;100936.69;5033288;28;20033;-71
2022/02/04 04:34:19;;;;;;;11.50;1.95;;;;;;;7.55;100.00;100934.97;5033359;28;20033;-69
2022/02/04 04:36:44;;;;;;;8.82;1.85;;;;;;;7.57;100.00;100940.19;5034151;28;20575;-68
2022/02/04 04:39:17;;;;;;;8.15;2.10;;;;;;;7.57;99.97;100930.53;5033526;28;20041;-67
2022/02/04 05:28:14;;;;;;;6.55;2.40;;;;;;;7.67;98.24;100895.06;5032604;28;20047;-73
2022/02/04 05:30:24;;;;;;;5.13;2.60;;;;;;;7.67;98.17;100873.09;5033245;28;20042;-67
2022/02/04 05:32:49;;;;;;;5.65;2.67;;;;;;;7.65;98.46;100878.41;5031902;28;20556;-69
2022/02/04 05:35:17;;;;;;;8.40;2.60;;;;;;;7.64;98.46;100891.66;5032244;28;20033;-67
2022/02/04 05:37:46;;;;;;;5.90;2.65;;;;;;;7.62;98.54;100886.44;5032412;28;20046;-69
2022/02/04 05:40:18;;;;;;;9.25;3.08;;;;;;;7.61;98.77;100874.16;5031798;28;20462;-67
2022/02/04 05:42:54;;;;;;;7.85;2.90;;;;;;;7.60;98.60;100859.25;5032105;28;20033;-67
2022/02/04 05:45:23;;;;;;;9.13;3.03;;;;;;;7.59;98.35;100854.03;5012570;28;20026;-67
2022/02/04 05:47:54;;;;;;;7.68;2.70;;;;;;;7.58;98.17;100847.03;5012170;28;20028;-68
2022/02/04 05:50:32;;;;;;;8.88;2.85;;;;;;;7.59;97.94;100851.41;5030598;28;20083;-66
2022/02/04 05:53:16;;;;;;;10.80;2.78;;;;;;;7.59;98.22;100849.63;5022611;28;20026;-65
2022/02/04 06:09:40;;;;;;;6.82;2.80;;;;;;;7.50;98.40;100845.50;5036343;28;20040;-70
2022/02/04 06:14:53;;;;;;;8.77;2.60;;;;;;;7.55;98.71;100842.75;5033914;28;20048;-70
2022/02/04 06:22:50;;;;;;;8.48;4.22;;;;;;;7.55;99.71;100840.09;5054417;28;20098;-68
2022/02/04 06:25:16;;;;;;;6.43;3.60;;;;;;;7.54;99.68;100839.25;5047890;28;20394;-67
2022/02/04 06:27:43;;;;;;;9.73;4.50;;;;;;;7.54;100.00;100847.16;5035672;28;20033;-69
2022/02/04 06:30:09;;;;;;;10.75;5.30;;;;;;;7.54;100.00;100848.91;5035635;28;20057;-66
2022/02/04 06:32:35;;;;;;;12.75;5.38;;;;;;;7.56;100.00;100794.41;5036592;28;20076;-67
2022/02/04 06:35:02;;;;;;;8.57;5.40;;;;;;;7.53;100.00;100841.91;5035180;28;20029;-69
2022/02/04 06:37:28;;;;;;;12.45;6.05;;;;;;;7.54;100.00;100843.63;5033996;28;20049;-67
2022/02/04 06:39:53;;;;;;;10.05;6.18;;;;;;;7.51;100.00;100851.66;5035736;28;20041;-68
2022/02/04 06:42:23;;;;;;;10.20;6.38;;;;;;;7.51;100.00;100833.22;5036369;28;20381;-66
2022/02/04 06:44:49;;;;;;;12.13;6.85;;;;;;;7.51;100.00;100834.06;5034530;28;20108;-70
2022/02/04 06:47:14;;;;;;;13.23;7.10;;;;;;;7.53;100.00;100826.09;5035123;28;20124;-68
2022/02/04 06:49:42;;;;;;;13.65;6.80;;;;;;;7.48;100.00;100823.63;5032941;28;20112;-68
2022/02/04 06:52:07;;;;;;;12.65;6.85;;;;;;;7.47;100.00;100821.06;5027342;28;20045;-70
2022/02/04 06:54:32;;;;;;;11.63;6.32;;;;;;;7.48;100.00;100828.03;5036454;28;20024;-66
2022/02/04 06:56:58;;;;;;;10.93;6.25;;;;;;;7.47;100.00;100819.28;5034789;28;20025;-67
2022/02/04 06:59:23;;;;;;;10.23;6.45;;;;;;;7.49;100.00;100819.22;5020048;28;20030;-66
2022/02/04 07:01:48;;;;;;;13.50;6.43;;;;;;;7.49;100.00;100821.84;5034707;28;20021;-70
2022/02/04 07:04:14;;;;;;;9.57;6.00;;;;;;;7.50;100.00;100805.97;5035370;28;20351;-67
2022/02/04 07:06:43;;;;;;;9.35;6.47;;;;;;;7.52;100.00;100816.50;5028794;28;20040;-66
2022/02/04 07:09:23;;;;;;;12.07;6.88;;;;;;;7.53;100.00;100820.81;5015942;28;20030;-70
2022/02/04 07:14:50;;;;;;;11.85;6.88;;;;;;;7.57;100.00;100822.47;5028699;28;20044;-68
2022/02/04 07:19:49;;;;;;;14.50;6.80;;;;;;;7.58;100.00;100810.16;5035209;28;20030;-67
2022/02/04 07:22:21;;;;;;;11.80;6.25;;;;;;;7.60;100.00;100827.63;5032347;28;20090;-69
2022/02/04 07:24:49;;;;;;;10.20;6.95;;;;;;;7.62;100.00;100822.31;5036971;28;20130;-69
2022/02/04 07:27:15;;;;;;;16.45;7.85;;;;;;;7.64;100.00;100807.31;5054925;28;20025;-68
2022/02/04 07:29:43;;;;;;;14.45;7.80;;;;;;;7.66;100.00;100810.75;5040361;28;20030;-68
2022/02/04 07:32:15;;;;;;;12.38;7.72;;;;;;;7.67;100.00;100813.34;5034780;28;20032;-65
2022/02/04 07:35:00;;;;;;;15.20;8.02;;;;;;;7.69;100.00;100819.41;5034437;28;20382;-71
2022/02/04 07:42:58;;;;;;;13.30;7.28;;;;;;;7.73;100.00;100809.63;5043916;28;20099;-66
2022/02/04 07:45:24;;;;;;;13.55;7.35;;;;;;;7.75;100.00;100796.41;5033811;28;20034;-65
2022/02/04 07:47:50;;;;;;;11.80;7.35;;;;;;;7.71;100.00;100801.78;5052115;28;20124;-63
2022/02/04 07:50:21;;;;;;;11.10;7.05;;;;;;;7.76;100.00;100792.84;5054242;28;20036;-65
2022/02/04 07:52:53;;;;;;;12.48;7.60;;;;;;;7.80;100.00;100800.63;5053667;28;20025;-65
2022/02/04 07:55:18;;;;;;;11.23;7.45;;;;;;;7.79;100.00;100788.34;5035958;28;20025;-64
2022/02/04 07:57:44;;;;;;;12.55;7.50;;;;;;;7.77;100.00;100787.53;5035363;28;20481;-65
2022/02/04 08:00:14;;;;;;;14.07;7.57;;;;;;;7.79;100.00;100775.16;5022178;28;20029;-67
2022/02/04 08:02:39;;;;;;;13.05;7.38;;;;;;;7.82;100.00;100782.97;5052342;28;20029;-65
2022/02/04 08:05:06;;;;;;;11.80;7.22;;;;;;;7.84;100.00;100782.94;5034699;28;20028;-66
2022/02/04 08:07:39;;;;;;;12.57;7.47;;;;;;;7.81;100.00;100768.09;5034074;28;20033;-67
2022/02/04 08:12:58;;;;;;;11.00;7.28;;;;;;;7.85;100.00;100761.78;5033765;28;20145;-66
2022/02/04 08:15:43;;;;;;;9.98;6.95;;;;;;;7.90;100.00;100761.59;5031674;28;20041;-66
2022/02/04 08:18:28;;;;;;;9.40;6.38;;;;;;;7.88;100.00;100764.28;5025448;28;20060;-64
2022/02/04 08:24:06;;;;;;;11.00;5.07;;;;;;;7.90;99.80;100753.69;5028217;28;20071;-67
2022/02/04 08:29:30;;;;;;;13.40;5.63;;;;;;;7.92;99.26;100743.97;5033281;28;20087;-65
2022/02/04 08:37:37;;;;;;;8.25;4.60;;;;;;;8.00;98.83;100736.63;5053035;28;20528;-65
2022/02/04 08:55:49;;;;;;;9.75;4.90;;;;;;;8.10;98.52;100733.69;5033366;28;20489;-66
2022/02/04 08:58:30;;;;;;;8.60;4.72;;;;;;;8.06;99.02;100717.09;5026749;28;20029;-66
2022/02/04 09:06:08;;;;;;;9.32;5.13;;;;;;;8.15;99.04;100703.56;5027693;28;20124;-72
2022/02/04 09:08:37;;;;;;;10.85;5.47;;;;;;;8.16;98.54;100683.34;5031850;28;20029;-73
2022/02/04 09:11:07;;;;;;;7.80;4.93;;;;;;;8.19;97.99;100684.06;5017170;28;20046;-70
2022/02/04 09:19:09;;;;;;;10.32;6.22;;;;;;;8.35;97.21;100683.47;5031726;28;20032;-73
2022/02/04 09:21:52;;;;;;;9.98;6.00;;;;;;;8.37;97.07;100679.03;5030006;28;20028;-73
2022/02/04 09:24:19;;;;;;;10.95;6.00;;;;;;;8.40;96.31;100668.38;5028903;28;20036;-73
2022/02/04 09:26:44;;;;;;;11.75;5.70;;;;;;;8.45;96.31;100674.31;5030599;28;20100;-74
2022/02/04 09:29:10;;;;;;;10.70;5.85;;;;;;;9.04;92.86;100661.47;5032379;28;20466;-73
2022/02/04 09:31:37;;;;;;;15.65;5.82;;;;;;;9.44;90.46;100674.78;5031148;28;20029;-72
2022/02/04 09:34:04;;;;;;;10.00;4.57;;;;;;;9.62;89.56;100662.56;5038830;28;20105;-73
2022/02/04 09:36:30;;;;;;;11.20;4.47;;;;;;;9.49;89.25;100668.38;5052390;28;20084;-73
2022/02/04 09:38:58;;;;;;;10.63;5.15;;;;;;;9.21;90.96;100654.59;5052036;28;20140;-73
2022/02/04 09:41:24;;;;;;;17.35;6.40;;;;;;;9.01;91.82;100661.56;5043999;28;20076;-73
2022/02/04 09:43:49;;;;;;;10.15;4.97;;;;;;;8.93;93.14;100651.34;5032128;28;20025;-73
2022/02/04 09:46:16;;;;;;;10.75;5.25;;;;;;;9.27;92.78;100641.13;5033539;28;20446;-74
2022/02/04 09:48:44;;;;;;;9.35;5.30;;;;;;;9.18;92.87;100627.41;5032353;28;20029;-73
2022/02/04 09:51:12;;;;;;;10.77;5.68;;;;;;;9.06;94.10;100664.03;5032018;28;20029;-73
2022/02/04 10:15:38;;;;;;;7.07;4.80;;;;;;;8.39;96.80;100621.78;5031735;28;20073;-73
2022/02/04 10:18:15;;;;;;;11.75;5.88;;;;;;;8.34;97.67;100624.59;5033027;28;20030;-73
2022/02/04 10:20:42;;;;;;;8.65;5.13;;;;;;;8.29;96.54;100612.50;5031944;28;20034;-74
2022/02/04 10:23:08;;;;;;;10.18;5.30;;;;;;;8.34;96.04;100607.91;5031729;28;20037;-73
2022/02/04 10:25:41;;;;;;;10.23;4.95;;;;;;;8.38;95.40;100601.59;5031149;28;20029;-73
2022/02/04 10:28:32;;;;;;;12.60;5.30;;;;;;;8.45;95.50;100605.72;5033341;28;20107;-72
2022/02/04 10:31:04;;;;;;;21.55;7.30;;;;;;;8.42;95.96;100611.09;5032989;28;20017;-72
2022/02/04 10:33:30;;;;;;;8.05;4.38;;;;;;;8.47;95.54;100608.31;5031787;28;20049;-72
2022/02/04 10:35:57;;;;;;;5.90;3.80;;;;;;;8.45;94.71;100599.56;5031299;28;20506;-73
2022/02/04 10:38:38;;;;;;;6.90;4.18;;;;;;;8.49;95.19;100601.19;5032291;28;20025;-73
2022/02/04 10:41:11;;;;;;;5.60;3.60;;;;;;;8.58;94.43;100595.56;5036249;28;20024;-72
2022/02/04 10:46:49;;;;;;;8.00;4.15;;;;;;;8.68;92.47;100582.81;5013115;28;20067;-72
2022/02/04 10:55:44;;;;;;;9.13;4.50;;;;;;;8.71;92.10;100566.88;4935119;29;20098;-68
2022/02/04 11:03:24;;;;;;;8.02;3.92;;;;;;;8.53;92.75;100563.22;4935200;29;20051;-68
2022/02/04 11:06:10;;;;;;;4.88;3.30;;;;;;;8.51;91.50;100552.69;4935154;29;20040;-66
2022/02/04 11:31:07;;;;;;;14.73;5.80;;;;;;;8.41;90.30;100509.09;5034738;28;20045;-67
2022/02/04 11:34:10;;;;;;;5.17;3.37;;;;;;;8.45;90.68;100502.81;5034593;28;20036;-66
2022/02/04 11:37:01;;;;;;;7.00;3.38;;;;;;;8.39;91.92;100510.09;5050443;28;20492;-66
2022/02/04 11:51:32;;;;;;;9.50;3.92;;;;;;;8.36;92.00;100501.41;5030013;28;20040;-67
2022/02/04 11:57:02;;;;;;;7.10;3.45;;;;;;;8.40;91.36;100464.31;5031098;28;20401;-66
2022/02/04 11:59:37;;;;;;;11.70;3.88;;;;;;;8.28;93.47;100465.69;5031418;28;20065;-67
2022/02/04 12:02:30;;;;;;;11.27;4.75;;;;;;;8.11;96.25;100454.06;5025739;28;20056;-65
2022/02/04 12:05:04;;;;;;;;;;;;;;;8.01;96.08;100440.38;5032009;28;20029;-67
2022/02/04 12:07:40;;;;;;;10.20;4.45;;;;;;;7.87;97.17;100429.53;5041221;28;19944;-66
2022/02/04 12:10:11;;;;;;;8.68;4.68;;;;;;;7.77;98.86;100442.22;5034778;28;20108;-67
2022/02/04 12:12:52;;;;;;;7.73;4.00;;;;;;;7.66;100.00;100444.41;5031051;28;20086;-64
2022/02/04 12:15:34;;;;;;;8.43;4.50;;;;;;;7.55;100.00;100445.69;5031291;28;20056;-68
2022/02/04 12:18:08;;;;;;;7.15;4.30;;;;;;;7.49;100.00;100421.34;5031393;28;20041;-67
2022/02/04 12:20:54;;;;;;;11.45;4.10;;;;;;;7.45;100.00;100433.78;5031363;28;20043;-67
2022/02/04 12:23:26;;;;;;;9.35;4.10;;;;;;;7.38;100.00;100417.38;5031320;28;20520;-65
2022/02/04 12:26:01;;;;;;;7.47;4.00;;;;;;;7.29;100.00;100399.28;5032587;28;20045;-65
2022/02/04 12:28:41;;;;;;;8.00;3.90;;;;;;;7.23;100.00;100410.06;5013818;28;20037;-64
2022/02/04 12:31:11;;;;;;;8.75;4.43;;;;;;;7.19;100.00;100416.34;5017932;28;20032;-66
2022/02/04 12:33:42;;;;;;;8.77;3.85;;;;;;;7.14;100.00;100387.56;5033659;28;20040;-66
2022/02/04 12:36:26;;;;;;;6.15;3.78;;;;;;;7.12;100.00;100378.00;5032974;28;20401;-63
2022/02/04 12:38:54;;;;;;;8.52;3.85;;;;;;;7.10;100.00;100385.09;5033638;28;20029;-64
2022/02/04 12:41:25;;;;;;;6.85;3.78;;;;;;;7.08;100.00;100368.50;5024498;28;20025;-64
2022/02/04 12:43:54;;;;;;;11.60;4.50;;;;;;;7.05;100.00;100364.22;5032905;28;20034;-65
2022/02/04 12:46:21;;;;;;;8.35;4.47;;;;;;;7.02;100.00;100377.47;5033182;28;20075;-64
2022/02/04 12:49:00;;;;;;;10.52;4.05;;;;;;;7.02;100.00;100365.19;5033125;28;20107;-63
2022/02/04 12:54:12;;;;;;;9.18;4.07;;;;;;;6.96;100.00;100359.31;5029402;28;20083;-64
2022/02/04 12:56:42;;;;;;;6.78;3.90;;;;;;;6.95;100.00;100368.09;5032519;28;20116;-63
2022/02/04 13:02:18;;;;;;;11.00;4.50;;;;;;;6.87;100.00;100471.88;5023742;28;20064;-65
2022/02/04 13:08:41;;;;;;;6.60;1.52;;;;;;;5.63;100.00;100506.53;5032790;28;20048;-64
2022/02/04 13:10:32;;;;;;;9.45;2.38;;;;;;;4.91;100.00;100506.78;5032803;28;20037;-64
2022/02/04 13:13:00;;;;;;;3.70;1.10;;;;;;;4.43;100.00;100516.75;5032157;28;20331;-63
2022/02/04 13:15:28;;;;;;;9.57;2.95;;;;;;;4.24;100.00;100518.09;5032014;28;20461;-66
2022/02/04 13:17:53;;;;;;;4.15;1.30;;;;;;;4.21;100.00;100526.06;5032634;28;20071;-63
2022/02/04 13:20:22;;;;;;;7.68;2.20;;;;;;;4.13;100.00;100522.72;5038869;28;20025;-64
2022/02/04 13:23:14;;;;;;;3.42;1.20;;;;;;;4.04;100.00;100519.44;5038618;28;20055;-64
2022/02/04 13:25:48;;;;;;;5.95;1.25;;;;;;;4.00;100.00;100519.53;5025507;28;20073;-67
2022/02/04 13:28:16;;;;;;;4.38;1.10;;;;;;;3.85;100.00;100528.59;5010151;28;20128;-68
2022/02/04 13:31:01;;;;;;;3.00;0.60;;;;;;;3.77;100.00;100528.75;5026499;28;20041;-65
2022/02/04 13:33:30;;;;;;;3.70;0.95;;;;;;;3.71;100.00;100534.13;5030909;28;20082;-66
2022/02/04 13:36:05;;;;;;;1.00;0.75;;;;;;;3.57;100.00;100532.66;5029729;28;20106;-66
2022/02/04 13:38:43;;;;;;;2.92;1.20;;;;;;;3.52;100.00;100541.53;5029537;28;20107;-65
2022/02/04 13:46:25;;;;;;;1.10;0.60;;;;;;;3.56;100.00;100556.28;5038760;28;20037;-66
2022/02/04 13:54:42;;;;;;;0.82;0.50;;;;;;;3.44;100.00;100583.56;5047210;28;20033;-64
2022/02/04 13:57:20;;;;;;;1.90;0.50;;;;;;;3.46;100.00;100580.91;5036225;28;20525;-64
2022/02/04 14:02:48;;;;;;;4.57;1.30;;;;;;;3.49;100.00;100600.03;5029637;28;20137;-64
2022/02/04 14:05:28;;;;;;;6.65;0.90;;;;;;;3.51;100.00;100593.00;5012216;28;20026;-65
2022/02/04 14:08:04;;;;;;;1.52;0.90;;;;;;;3.65;100.00;100611.06;5020688;28;20022;-66
2022/02/04 14:10:45;;;;;;;5.13;1.77;;;;;;;3.76;100.00;100622.19;5032220;28;20025;-66
2022/02/04 14:13:13;;;;;;;1.40;0.55;;;;;;;3.73;100.00;100610.91;5032901;28;20428;-67
2022/02/04 14:15:43;;;;;;;1.95;0.70;;;;;;;3.79;100.00;100613.41;5035612;28;20107;-66
2022/02/04 14:18:11;;;;;;;3.45;0.60;;;;;;;3.87;100.00;100615.88;5036092;28;20452;-67
2022/02/04 14:20:40;;;;;;;2.47;1.17;;;;;;;3.98;100.00;100615.63;5035467;28;20029;-67
2022/02/04 14:23:07;;;;;;;6.22;1.13;;;;;;;4.06;100.00;100611.97;5035709;28;20083;-67
2022/02/04 14:25:58;;;;;;;2.85;0.70;;;;;;;4.18;100.00;100623.97;5036719;28;20033;-65
2022/02/04 14:28:44;;;;;;;6.43;1.55;;;;;;;4.24;100.00;100642.16;5035152;28;20029;-66
2022/02/04 14:31:17;;;;;;;4.40;1.25;;;;;;;4.23;100.00;100644.81;5035662;28;20026;-65
2022/02/04 14:36:42;;;;;;;1.63;0.50;;;;;;;4.10;100.00;100662.56;5034510;28;20068;-65
2022/02/04 15:03:54;;;;;;;4.53;1.05;;;;;;;4.00;100.00;100757.97;4991740;28;20050;-64
2022/02/04 15:06:30;;;;;;;1.92;1.13;;;;;;;4.02;100.00;100754.41;4988413;28;20037;-66
2022/02/04 15:08:56;;;;;;;5.45;1.30;;;;;;;4.08;100.00;100771.81;4984305;28;20053;-67
2022/02/04 15:11:27;;;;;;;3.38;1.45;;;;;;;4.12;100.00;100776.09;4989924;28;20382;-66
2022/02/04 15:13:53;;;;;;;3.25;1.42;;;;;;;4.12;100.00;100781.31;4989536;28;20125;-66
2022/02/04 15:16:18;;;;;;;2.90;1.40;;;;;;;4.07;100.00;100791.03;4958881;28;20118;-65
2022/02/04 15:18:43;;;;;;;4.47;1.67;;;;;;;4.04;100.00;100807.69;4982651;28;20034;-64
2022/02/04 15:21:14;;;;;;;3.25;0.95;;;;;;;3.98;100.00;100794.69;4989865;28;20078;-64
2022/02/04 15:23:41;;;;;;;4.00;1.20;;;;;;;3.92;100.00;100803.50;4992895;28;20042;-67
2022/02/04 15:26:09;;;;;;;2.85;1.10;;;;;;;3.88;100.00;100811.47;4987346;28;20035;-66
2022/02/04 15:28:44;;;;;;;5.30;1.50;;;;;;;3.86;100.00;100831.56;4979761;28;20137;-68
2022/02/04 15:31:40;;;;;;;5.97;1.15;;;;;;;3.87;100.00;100835.91;4980719;28;20034;-64
2022/02/04 15:33:59;;;;;;;3.30;1.08;;;;;;;3.90;100.00;100841.09;4985477;28;20038;-68
2022/02/04 15:36:35;;;;;;;2.90;1.70;;;;;;;3.97;100.00;100834.88;4974643;28;20049;-67
2022/02/04 15:39:04;;;;;;;3.53;1.50;;;;;;;4.26;100.00;100851.84;4989226;28;20034;-67
2022/02/04 15:41:29;;;;;;;11.07;3.25;;;;;;;4.37;100.00;100847.25;5033564;28;20014;-64
2022/02/04 15:43:59;;;;;;;4.10;1.30;;;;;;;4.46;100.00;100850.59;5032663;28;20036;-65
2022/02/04 15:52:27;;;;;;;6.85;2.08;;;;;;;4.31;100.00;100888.44;5033371;28;20501;-65
2022/02/04 15:54:39;;;;;;;7.25;1.13;;;;;;;4.34;100.00;100884.00;5031232;28;20543;-65
2022/02/04 16:02:50;;;;;;;6.03;1.60;;;;;;;4.09;100.00;100922.88;5019525;28;20589;-66
2022/02/04 16:05:15;;;;;;;4.78;1.38;;;;;;;3.88;100.00;100952.94;5030352;28;20031;-68
2022/02/04 16:07:41;;;;;;;5.07;1.50;;;;;;;3.63;100.00;100941.94;5029686;28;20037;-68
2022/02/04 16:10:30;;;;;;;5.20;1.60;;;;;;;3.56;100.00;100936.78;5021419;28;20094;-68
2022/02/04 16:13:23;;;;;;;6.25;1.65;;;;;;;3.48;100.00;100922.94;5032772;28;20525;-66
2022/02/04 16:15:54;;;;;;;9.57;2.65;;;;;;;3.32;100.00;100926.66;5031738;28;20579;-65
2022/02/04 16:18:24;;;;;;;5.18;1.77;;;;;;;3.25;100.00;100941.59;5012865;28;20038;-64
2022/02/04 16:28:44;;;;;;;11.48;3.60;;;;;;;3.27;100.00;100981.69;4952806;28;20138;-65
2022/02/04 16:31:13;;;;;;;10.60;2.55;;;;;;;3.41;100.00;100986.75;4942571;29;20050;-67
2022/02/04 16:33:39;;;;;;;14.13;2.22;;;;;;;3.50;100.00;100991.84;4938378;29;20110;-68
2022/02/04 16:36:11;;;;;;;11.15;2.25;;;;;;;3.63;100.00;100999.56;4964681;28;20692;-63
2022/02/04 16:38:37;;;;;;;10.55;3.05;;;;;;;3.66;100.00;100991.63;4972829;28;20561;-64
2022/02/04 16:41:07;;;;;;;11.02;2.38;;;;;;;3.64;100.00;100996.91;4959359;28;20487;-66
2022/02/04 16:43:35;;;;;;;6.60;2.10;;;;;;;3.66;100.00;101008.25;4952925;29;20231;-67
2022/02/04 16:46:03;;;;;;;17.05;2.40;;;;;;;3.65;100.00;101003.03;4963221;28;20058;-66
2022/02/04 16:48:29;;;;;;;10.27;2.95;;;;;;;3.61;100.00;101010.06;4965076;28;20050;-63
2022/02/04 16:50:55;;;;;;;11.18;2.75;;;;;;;3.59;100.00;101017.94;4969369;28;20138;-67
2022/02/04 16:53:20;;;;;;;16.33;2.85;;;;;;;3.61;100.00;101018.75;4967473;28;20035;-66
2022/02/04 16:55:45;;;;;;;16.48;2.97;;;;;;;3.63;100.00;101030.97;4967734;28;20057;-66
2022/02/04 16:58:11;;;;;;;21.92;4.28;;;;;;;3.69;100.00;101025.66;4968784;28;20110;-66
2022/02/04 17:00:37;;;;;;;12.23;3.05;;;;;;;3.83;100.00;101036.81;4954310;28;20035;-67
2022/02/04 17:03:08;;;;;;;9.93;3.25;;;;;;;3.89;100.00;101030.63;5005432;28;20753;-68
2022/02/04 17:05:52;;;;;;;11.38;3.35;;;;;;;4.00;100.00;101038.34;5029010;28;20037;-67
2022/02/04 17:08:31;;;;;;;14.95;2.90;;;;;;;4.06;99.45;101043.50;5033000;28;20033;-66
2022/02/04 17:10:57;;;;;;;10.63;3.17;;;;;;;4.08;99.43;101033.88;5032846;28;20100;-67
2022/02/04 17:13:23;;;;;;;8.23;2.83;;;;;;;4.06;98.31;101033.88;5032713;28;20122;-66
2022/02/04 17:15:49;;;;;;;15.38;3.03;;;;;;;4.04;98.80;101055.75;5033582;28;20480;-66
2022/02/04 17:18:15;;;;;;;8.48;2.42;;;;;;;4.08;99.11;101060.06;5033260;28;20386;-66
2022/02/04 17:20:41;;;;;;;16.73;3.13;;;;;;;4.14;98.34;101059.09;5032699;28;20022;-66
2022/02/04 17:23:09;;;;;;;10.10;2.80;;;;;;;4.24;97.24;101065.94;5031983;28;20033;-66
2022/02/04 17:25:38;;;;;;;6.57;2.33;;;;;;;4.29;98.02;101061.50;5032836;28;20099;-65
2022/02/04 17:28:03;;;;;;;10.75;3.05;;;;;;;4.36;98.29;101072.75;5031770;28;20416;-63
2022/02/04 17:30:30;;;;;;;11.18;2.78;;;;;;;4.44;97.36;101073.50;5032155;28;20032;-67
2022/02/04 17:32:55;;;;;;;10.65;3.13;;;;;;;4.52;97.11;101070.75;5046978;28;20044;-65
2022/02/04 17:35:23;;;;;;;12.57;3.03;;;;;;;4.57;96.34;101089.91;5043275;28;20025;-66